Time;durP1;ratioP1;P1;durP2;ratioP2;P2;SDS_P1;SDS_P2;PMS_P1;PMS_P2;Temp;Humidity;BMP_temperature;BMP_pressure;BME280_temperature;BME280_humidity;BME280_pressure;Samples;Min_cycle;Max_cycle;Signal;HPM_P1;HPM_P2
2022/01/05 00:02:06;;;;;;;74.15;43.67;;;281.70;2278.40;;;;;;5029788;28;20067;-58
2022/01/05 00:04:33;;;;;;;173.40;116.38;;;256.90;2252.80;;;;;;5029991;28;20053;-58
2022/01/05 00:06:58;;;;;;;142.68;84.20;;;256.80;2252.80;;;;;;5030112;28;20032;-58
2022/01/05 00:09:24;;;;;;;228.52;139.32;;;256.70;2252.80;;;;;;5029946;28;20021;-57
2022/01/05 00:11:50;;;;;;;146.93;90.75;;;256.80;2252.80;;;;;;5029765;28;20476;-57
2022/01/05 00:14:15;;;;;;;124.93;72.50;;;256.60;2252.80;;;;;;5029932;28;20111;-57
2022/01/05 00:16:41;;;;;;;132.15;75.95;;;256.60;2252.80;;;;;;5030147;28;20032;-57
2022/01/05 00:19:07;;;;;;;144.68;90.05;;;256.50;2252.80;;;;;;5030044;28;20026;-57
2022/01/05 00:21:33;;;;;;;65.75;39.80;;;256.50;2252.80;;;;;;5029706;28;20033;-58
2022/01/05 00:23:58;;;;;;;60.70;42.92;;;256.40;2252.80;;;;;;5030019;28;20444;-58
2022/01/05 00:26:26;;;;;;;60.22;41.13;;;256.40;2252.80;;;;;;5032646;28;20026;-59
2022/01/05 00:28:52;;;;;;;55.58;35.78;;;256.40;2252.80;;;;;;5033762;28;20030;-58
2022/01/05 00:31:17;;;;;;;96.43;62.13;;;256.10;2252.80;;;;;;5033718;28;20526;-58
2022/01/05 00:33:43;;;;;;;161.45;100.80;;;256.20;2252.80;;;;;;5033776;28;20042;-58
2022/01/05 00:36:09;;;;;;;90.07;59.63;;;256.30;2252.80;;;;;;5033819;28;20025;-59
2022/01/05 00:38:34;;;;;;;85.82;55.95;;;256.50;2252.80;;;;;;5033776;28;20033;-58
2022/01/05 00:41:01;;;;;;;99.65;61.47;;;256.50;2252.80;;;;;;5033430;28;20029;-58
2022/01/05 00:43:27;;;;;;;128.63;83.38;;;256.40;2252.80;;;;;;5033701;28;20431;-57
2022/01/05 00:45:53;;;;;;;86.45;52.15;;;256.20;2252.80;;;;;;5033640;28;20384;-58
2022/01/05 00:48:19;;;;;;;82.20;52.78;;;256.20;2252.80;;;;;;5033330;28;20065;-58
2022/01/05 00:50:45;;;;;;;84.40;53.50;;;256.20;2252.80;;;;;;5033512;28;20099;-57
2022/01/05 00:53:10;;;;;;;60.03;35.47;;;256.00;2252.80;;;;;;5033330;28;20038;-58
2022/01/05 00:55:37;;;;;;;53.55;33.58;;;256.00;2252.80;;;;;;5033454;28;20029;-58
2022/01/05 00:58:03;;;;;;;48.85;29.92;;;256.00;2252.80;;;;;;5033046;28;20061;-58
2022/01/05 01:00:28;;;;;;;50.40;31.20;;;256.00;2252.80;;;;;;5033347;28;20045;-58
2022/01/05 01:02:54;;;;;;;24.33;16.88;;;231.30;2252.80;;;;;;5033198;28;20496;-58
2022/01/05 01:05:20;;;;;;;54.53;35.25;;;231.20;2252.80;;;;;;5033017;28;20375;-58
2022/01/05 01:07:46;;;;;;;48.63;29.35;;;231.20;2252.80;;;;;;5033224;28;20022;-58
2022/01/05 01:10:12;;;;;;;27.95;18.02;;;231.20;2252.80;;;;;;5032968;28;20132;-58
2022/01/05 01:12:38;;;;;;;64.22;39.50;;;231.20;2252.80;;;;;;5033191;28;20037;-57
2022/01/05 01:15:07;;;;;;;38.42;29.23;;;231.30;2252.80;;;;;;5033017;28;20033;-58
2022/01/05 01:17:33;;;;;;;248.82;149.75;;;231.20;2252.80;;;;;;5032662;28;20033;-57
2022/01/05 01:19:59;;;;;;;67.25;39.83;;;231.20;2252.80;;;;;;5033072;28;20025;-58
2022/01/05 01:22:27;;;;;;;83.63;50.40;;;256.00;2252.80;;;;;;5032913;28;20021;-58
2022/01/05 01:24:53;;;;;;;56.40;34.38;;;256.20;2252.80;;;;;;5032658;28;20040;-58
2022/01/05 01:27:19;;;;;;;75.72;48.55;;;256.30;2252.80;;;;;;5032814;28;20026;-58
2022/01/05 01:29:44;;;;;;;93.82;57.03;;;256.40;2252.80;;;;;;5032815;28;20472;-58
2022/01/05 01:32:10;;;;;;;126.30;74.25;;;256.50;2252.80;;;;;;5032458;28;20041;-58
2022/01/05 01:34:36;;;;;;;125.85;80.75;;;256.60;2252.80;;;;;;5032752;28;20018;-58
2022/01/05 01:37:02;;;;;;;191.55;119.47;;;256.60;2252.80;;;;;;5032114;28;20022;-58
2022/01/05 01:39:27;;;;;;;221.30;127.72;;;256.60;2252.80;;;;;;5032627;28;20040;-57
2022/01/05 01:41:53;;;;;;;125.80;74.68;;;256.60;2252.80;;;;;;5032439;28;20029;-58
2022/01/05 01:44:19;;;;;;;106.82;66.22;;;256.80;2252.80;;;;;;5032390;28;20068;-59
2022/01/05 01:46:45;;;;;;;85.55;55.65;;;256.80;2252.80;;;;;;5032649;28;20384;-58
2022/01/05 01:49:10;;;;;;;65.75;39.67;;;256.90;2252.80;;;;;;5032347;28;20025;-58
2022/01/05 01:51:36;;;;;;;60.03;36.33;;;281.60;2278.40;;;;;;5032251;28;20037;-58
2022/01/05 01:54:03;;;;;;;33.45;22.20;;;281.60;2278.40;;;;;;5032292;28;20036;-57
2022/01/05 01:56:33;;;;;;;49.10;31.35;;;281.70;2278.40;;;;;;5032007;28;20148;-58
2022/01/05 01:59:00;;;;;;;86.05;48.80;;;281.80;2278.40;;;;;;5031958;28;20025;-58
2022/01/05 02:01:26;;;;;;;114.38;67.32;;;281.80;2278.40;;;;;;5032061;28;20030;-57
2022/01/05 02:03:51;;;;;;;132.80;72.32;;;281.80;2278.40;;;;;;5031800;28;20107;-58
2022/01/05 02:06:17;;;;;;;61.13;35.85;;;281.90;2278.40;;;;;;5032191;28;20025;-59
2022/01/05 02:08:43;;;;;;;112.38;63.90;;;281.90;2278.40;;;;;;5032036;28;20415;-58
2022/01/05 02:11:11;;;;;;;60.78;37.33;;;281.80;2278.40;;;;;;5032068;28;20380;-57
2022/01/05 02:13:37;;;;;;;27.33;18.52;;;281.70;2278.40;;;;;;5032060;28;20049;-57
2022/01/05 02:16:04;;;;;;;35.30;21.75;;;281.70;2278.40;;;;;;5031676;28;20479;-58
2022/01/05 02:21:14;;;;;;;32.97;11.07;;;281.80;2278.40;;;;;;5031989;28;20104;-58
2022/01/05 02:23:40;;;;;;;16.90;10.00;;;281.90;2278.40;;;;;;5031700;28;20105;-58
2022/01/05 02:26:07;;;;;;;13.93;9.00;;;282.00;2278.40;;;;;;5031804;28;20029;-58
2022/01/05 02:28:32;;;;;;;10.88;8.02;;;282.10;2278.40;;;;;;5031770;28;20455;-58
2022/01/05 02:30:59;;;;;;;11.05;7.43;;;282.10;2278.40;;;;;;5031524;28;20033;-58
2022/01/05 02:33:25;;;;;;;10.07;6.72;;;282.20;2278.40;;;;;;5031621;28;20033;-58
2022/01/05 02:35:52;;;;;;;18.58;10.52;;;282.20;2278.40;;;;;;5031480;28;20491;-58
2022/01/05 02:38:22;;;;;;;19.58;12.80;;;282.30;2278.40;;;;;;5031519;28;20544;-58
2022/01/05 02:40:51;;;;;;;12.32;7.70;;;282.30;2278.40;;;;;;5031793;28;20021;-58
2022/01/05 02:43:17;;;;;;;10.98;6.50;;;282.30;2278.40;;;;;;5031601;28;20029;-58
2022/01/05 02:45:43;;;;;;;8.27;6.47;;;282.30;2278.40;;;;;;5031224;28;20052;-58
2022/01/05 02:48:08;;;;;;;8.82;7.15;;;282.40;2278.40;;;;;;5030514;28;20021;-57
2022/01/05 02:50:35;;;;;;;17.70;13.95;;;282.50;2278.40;;;;;;5031464;28;20034;-58
2022/01/05 02:53:01;;;;;;;15.52;11.70;;;282.40;2278.40;;;;;;5030982;28;20029;-58
2022/01/05 02:55:26;;;;;;;18.33;13.45;;;282.50;2278.40;;;;;;5031228;28;20365;-58
2022/01/05 02:57:52;;;;;;;16.15;12.30;;;282.50;2278.40;;;;;;5031157;28;20029;-58
2022/01/05 03:00:18;;;;;;;18.88;12.98;;;282.50;2278.40;;;;;;5030861;28;20056;-58
2022/01/05 03:02:44;;;;;;;20.83;14.40;;;282.50;2278.40;;;;;;5030831;28;20052;-58
2022/01/05 03:05:11;;;;;;;13.23;9.23;;;282.50;2278.40;;;;;;5030803;28;20120;-59
2022/01/05 03:07:39;;;;;;;14.57;11.45;;;282.50;2278.40;;;;;;5031003;28;20049;-58
2022/01/05 03:10:10;;;;;;;21.08;12.13;;;282.50;2278.40;;;;;;5030885;28;20112;-57
2022/01/05 03:12:41;;;;;;;31.38;20.88;;;282.50;2278.40;;;;;;5030842;28;20360;-58
2022/01/05 03:15:08;;;;;;;30.10;20.40;;;282.50;2278.40;;;;;;5030789;28;20064;-58
2022/01/05 03:17:34;;;;;;;26.85;15.95;;;282.50;2278.40;;;;;;5030655;28;20084;-58
2022/01/05 03:20:00;;;;;;;19.48;11.93;;;282.40;2278.40;;;;;;5030609;28;20018;-58
2022/01/05 03:22:26;;;;;;;29.27;18.48;;;282.40;2278.40;;;;;;5030602;28;20468;-58
2022/01/05 03:24:51;;;;;;;22.73;15.60;;;282.40;2278.40;;;;;;5030617;28;20112;-58
2022/01/05 03:27:17;;;;;;;11.05;7.22;;;282.40;2278.40;;;;;;5030854;28;20048;-58
2022/01/05 03:29:43;;;;;;;12.35;7.07;;;282.40;2278.40;;;;;;5030515;28;20379;-58
2022/01/05 03:32:08;;;;;;;14.35;6.97;;;282.50;2278.40;;;;;;5030401;28;20091;-58
2022/01/05 03:34:36;;;;;;;10.63;7.18;;;282.50;2278.40;;;;;;5030697;28;20369;-58
2022/01/05 03:37:03;;;;;;;11.68;7.82;;;282.40;2278.40;;;;;;5030332;28;20030;-58
2022/01/05 03:39:29;;;;;;;10.80;6.55;;;282.40;2278.40;;;;;;5030435;28;20029;-58
2022/01/05 03:41:54;;;;;;;11.55;8.93;;;282.40;2278.40;;;;;;5030579;28;20040;-58
2022/01/05 03:44:20;;;;;;;12.90;9.85;;;282.30;2278.40;;;;;;5030192;28;20029;-58
2022/01/05 03:46:46;;;;;;;9.77;7.22;;;282.40;2278.40;;;;;;5030342;28;20025;-58
2022/01/05 03:49:12;;;;;;;9.68;6.28;;;282.40;2278.40;;;;;;5030309;28;20035;-58
2022/01/05 03:51:37;;;;;;;10.10;6.57;;;282.40;2278.40;;;;;;5030205;28;20030;-58
2022/01/05 03:54:03;;;;;;;10.20;7.40;;;282.50;2278.40;;;;;;5029870;28;20044;-58
2022/01/05 03:56:30;;;;;;;9.73;6.45;;;282.50;2278.40;;;;;;5030340;28;20021;-59
2022/01/05 03:58:55;;;;;;;9.23;5.45;;;307.20;2304.00;;;;;;5029868;28;20065;-58
2022/01/05 04:01:21;;;;;;;12.00;6.45;;;282.50;2278.40;;;;;;5029919;28;20448;-58
2022/01/05 04:03:47;;;;;;;14.38;10.48;;;282.50;2278.40;;;;;;5029996;28;20396;-58
2022/01/05 04:06:14;;;;;;;13.95;7.35;;;282.50;2278.40;;;;;;5030038;28;20033;-58
2022/01/05 04:08:40;;;;;;;16.70;8.98;;;282.50;2278.40;;;;;;5030004;28;20032;-58
2022/01/05 04:11:06;;;;;;;14.60;9.13;;;282.50;2278.40;;;;;;5029942;28;20025;-58
2022/01/05 04:13:31;;;;;;;15.15;8.35;;;307.20;2304.00;;;;;;5030134;28;20037;-58
2022/01/05 04:15:57;;;;;;;15.07;7.90;;;282.50;2278.40;;;;;;5030244;28;20071;-58
2022/01/05 04:18:23;;;;;;;17.85;10.10;;;282.50;2278.40;;;;;;5029908;28;20119;-58
2022/01/05 04:20:48;;;;;;;23.90;13.20;;;282.50;2278.40;;;;;;5029889;28;20060;-59
2022/01/05 04:23:14;;;;;;;15.43;9.82;;;282.40;2278.40;;;;;;5030139;28;20021;-58
2022/01/05 04:25:40;;;;;;;12.57;6.18;;;282.40;2278.40;;;;;;5029833;28;20077;-58
2022/01/05 04:28:06;;;;;;;15.00;7.70;;;282.40;2278.40;;;;;;5029984;28;20017;-58
2022/01/05 04:30:32;;;;;;;17.60;9.52;;;282.30;2278.40;;;;;;5029667;28;20124;-58
2022/01/05 04:32:57;;;;;;;15.65;8.45;;;282.30;2278.40;;;;;;5029893;28;20037;-58
2022/01/05 04:35:23;;;;;;;12.52;8.77;;;282.30;2278.40;;;;;;5029833;28;20025;-59
2022/01/05 04:37:49;;;;;;;12.80;8.32;;;282.30;2278.40;;;;;;5029855;28;20421;-58
2022/01/05 04:40:14;;;;;;;16.48;8.48;;;282.30;2278.40;;;;;;5029824;28;20492;-58
2022/01/05 04:42:40;;;;;;;13.38;8.18;;;282.30;2278.40;;;;;;5029875;28;20120;-58
2022/01/05 04:45:06;;;;;;;17.92;9.93;;;282.20;2278.40;;;;;;5029768;28;20097;-58
2022/01/05 04:47:32;;;;;;;9.77;6.00;;;282.30;2278.40;;;;;;5029582;28;20017;-58
2022/01/05 04:49:58;;;;;;;13.75;8.70;;;282.30;2278.40;;;;;;5029755;28;20021;-58
2022/01/05 04:52:24;;;;;;;11.90;8.27;;;282.30;2278.40;;;;;;5029647;28;20120;-58
2022/01/05 04:54:50;;;;;;;12.20;8.45;;;282.20;2278.40;;;;;;5029383;28;20376;-58
2022/01/05 04:57:16;;;;;;;10.32;6.93;;;282.20;2278.40;;;;;;5029562;28;20037;-58
2022/01/05 04:59:43;;;;;;;11.40;6.63;;;282.20;2278.40;;;;;;5029459;28;20468;-58
2022/01/05 05:02:11;;;;;;;13.00;8.23;;;282.10;2278.40;;;;;;5029293;28;20049;-58
2022/01/05 05:04:38;;;;;;;32.70;23.33;;;282.00;2278.40;;;;;;5029689;28;20423;-56
2022/01/05 05:07:05;;;;;;;30.55;20.65;;;281.90;2278.40;;;;;;5029337;28;20029;-58
2022/01/05 05:09:30;;;;;;;23.15;15.13;;;281.60;2278.40;;;;;;5029288;28;20032;-57
2022/01/05 05:11:56;;;;;;;20.20;12.38;;;281.60;2278.40;;;;;;5031054;28;20120;-57
2022/01/05 05:14:22;;;;;;;23.15;14.45;;;281.70;2278.40;;;;;;5032975;28;20104;-58
2022/01/05 05:16:48;;;;;;;19.02;14.38;;;281.60;2278.40;;;;;;5033301;28;20545;-57
2022/01/05 05:19:14;;;;;;;24.60;17.10;;;281.70;2278.40;;;;;;5033160;28;20049;-57
2022/01/05 05:21:39;;;;;;;24.60;14.70;;;256.60;2252.80;;;;;;5032844;28;20038;-58
2022/01/05 05:24:06;;;;;;;25.00;16.17;;;256.50;2252.80;;;;;;5033105;28;20021;-57
2022/01/05 05:26:31;;;;;;;20.17;13.07;;;256.40;2252.80;;;;;;5032576;28;20028;-57
2022/01/05 05:28:57;;;;;;;30.98;21.30;;;256.40;2252.80;;;;;;5032872;28;20018;-57
2022/01/05 05:31:23;;;;;;;22.58;14.52;;;256.40;2252.80;;;;;;5032553;28;20040;-58
2022/01/05 05:33:49;;;;;;;28.15;17.70;;;256.40;2252.80;;;;;;5032865;28;20538;-58
2022/01/05 05:36:14;;;;;;;51.58;30.45;;;256.50;2252.80;;;;;;5032936;28;20045;-58
2022/01/05 05:38:40;;;;;;;78.75;55.10;;;256.40;2252.80;;;;;;5032652;28;20029;-59
2022/01/05 05:41:06;;;;;;;65.43;46.42;;;256.00;2252.80;;;;;;5032691;28;20025;-57
2022/01/05 05:43:32;;;;;;;52.33;36.28;;;231.20;2252.80;;;;;;5032382;28;20038;-58
2022/01/05 05:45:57;;;;;;;20.75;13.55;;;231.30;2252.80;;;;;;5032735;28;20029;-57
2022/01/05 05:48:23;;;;;;;19.05;12.80;;;256.00;2252.80;;;;;;5032325;28;20386;-58
2022/01/05 05:50:49;;;;;;;28.13;20.65;;;256.00;2252.80;;;;;;5032581;28;20022;-58
2022/01/05 05:53:15;;;;;;;45.65;32.55;;;256.00;2252.80;;;;;;5032405;28;20033;-59
2022/01/05 05:55:40;;;;;;;41.55;27.05;;;231.30;2252.80;;;;;;5032264;28;20391;-58
2022/01/05 05:58:06;;;;;;;52.83;34.97;;;256.00;2252.80;;;;;;5032576;28;20156;-58
2022/01/05 06:00:32;;;;;;;44.95;28.17;;;231.30;2252.80;;;;;;5031787;28;20071;-58
2022/01/05 06:02:59;;;;;;;39.67;24.77;;;256.00;2252.80;;;;;;5031884;28;20060;-58
2022/01/05 06:05:26;;;;;;;36.25;23.92;;;256.00;2252.80;;;;;;5032125;28;20048;-58
2022/01/05 06:07:52;;;;;;;32.03;22.70;;;256.00;2252.80;;;;;;5031985;28;20033;-57
2022/01/05 06:10:18;;;;;;;98.82;66.78;;;231.20;2252.80;;;;;;5031981;28;20021;-58
2022/01/05 06:12:44;;;;;;;28.85;18.75;;;231.30;2252.80;;;;;;5031881;28;20546;-58
2022/01/05 06:15:09;;;;;;;28.55;18.20;;;231.30;2252.80;;;;;;5031673;28;20530;-59
2022/01/05 06:17:35;;;;;;;26.00;19.40;;;231.30;2252.80;;;;;;5032112;28;20026;-58
2022/01/05 06:20:04;;;;;;;50.08;36.80;;;231.20;2252.80;;;;;;5031743;28;20044;-58
2022/01/05 06:22:30;;;;;;;25.80;18.50;;;231.20;2252.80;;;;;;5031744;28;20036;-59
2022/01/05 06:24:56;;;;;;;26.63;18.13;;;231.20;2252.80;;;;;;5031854;28;20017;-58
2022/01/05 06:27:22;;;;;;;51.08;32.95;;;231.10;2252.80;;;;;;5031427;28;20402;-57
2022/01/05 06:29:48;;;;;;;45.30;30.50;;;231.20;2252.80;;;;;;5031967;28;20018;-58
2022/01/05 06:32:13;;;;;;;38.33;23.75;;;231.30;2252.80;;;;;;5031481;28;20179;-57
2022/01/05 06:34:39;;;;;;;58.03;39.05;;;256.00;2252.80;;;;;;5031712;28;20030;-59
2022/01/05 06:37:05;;;;;;;113.50;75.25;;;256.10;2252.80;;;;;;5031648;28;20037;-58
2022/01/05 06:39:31;;;;;;;50.20;31.75;;;256.00;2252.80;;;;;;5031401;28;20023;-57
2022/01/05 06:41:57;;;;;;;127.95;75.60;;;256.00;2252.80;;;;;;5031474;28;20036;-57
2022/01/05 06:44:23;;;;;;;146.45;85.03;;;256.20;2252.80;;;;;;5031187;28;20021;-57
2022/01/05 06:46:48;;;;;;;171.40;117.95;;;256.20;2252.80;;;;;;5031411;28;20044;-57
2022/01/05 06:49:14;;;;;;;88.13;55.97;;;256.20;2252.80;;;;;;5031328;28;20076;-58
2022/01/05 06:51:40;;;;;;;79.93;51.38;;;256.40;2252.80;;;;;;5031260;28;20060;-58
2022/01/05 06:54:06;;;;;;;91.32;69.13;;;256.50;2252.80;;;;;;5031199;28;20472;-58
2022/01/05 06:56:31;;;;;;;47.08;36.38;;;256.40;2252.80;;;;;;5031003;28;20068;-58
2022/01/05 06:58:57;;;;;;;81.18;48.33;;;256.20;2252.80;;;;;;5031301;28;20535;-58
2022/01/05 07:01:23;;;;;;;207.95;116.80;;;231.30;2252.80;;;;;;5030814;28;20124;-58
2022/01/05 07:03:48;;;;;;;104.78;61.92;;;256.00;2252.80;;;;;;5030999;28;20054;-54
2022/01/05 07:06:14;;;;;;;31.17;22.58;;;256.10;2252.80;;;;;;5030836;28;20025;-56
2022/01/05 07:08:40;;;;;;;24.25;18.27;;;231.30;2252.80;;;;;;5030981;28;20496;-56
2022/01/05 07:11:05;;;;;;;30.30;24.27;;;256.00;2252.80;;;;;;5030806;28;20049;-66
2022/01/05 07:13:31;;;;;;;145.30;85.63;;;256.00;2252.80;;;;;;5030744;28;20071;-65
2022/01/05 07:15:57;;;;;;;135.48;83.07;;;256.10;2252.80;;;;;;5031080;28;20104;-66
2022/01/05 07:18:23;;;;;;;82.65;54.20;;;256.10;2252.80;;;;;;5030448;28;20514;-57
2022/01/05 07:20:48;;;;;;;46.53;31.40;;;256.20;2252.80;;;;;;5030993;28;20147;-64
2022/01/05 07:23:14;;;;;;;87.75;57.70;;;256.20;2252.80;;;;;;5030627;28;20029;-56
2022/01/05 07:25:40;;;;;;;97.82;72.80;;;256.00;2252.80;;;;;;5030764;28;20079;-58
2022/01/05 07:28:06;;;;;;;122.88;87.32;;;256.00;2252.80;;;;;;5030726;28;20021;-65
2022/01/05 07:30:32;;;;;;;48.70;34.83;;;256.00;2252.80;;;;;;5030413;28;20541;-57
2022/01/05 07:32:58;;;;;;;41.63;30.73;;;256.20;2252.80;;;;;;5030547;28;20077;-65
2022/01/05 07:35:23;;;;;;;128.95;83.55;;;256.30;2252.80;;;;;;5029797;28;20112;-59
2022/01/05 07:37:49;;;;;;;120.47;85.88;;;256.50;2252.80;;;;;;5030654;28;20079;-56
2022/01/05 07:40:15;;;;;;;60.22;45.40;;;256.60;2252.80;;;;;;5030526;28;20028;-57
2022/01/05 07:42:41;;;;;;;64.70;50.88;;;256.80;2252.80;;;;;;5030273;28;20032;-57
2022/01/05 07:45:09;;;;;;;43.58;33.78;;;256.80;2252.80;;;;;;5030417;28;20018;-64
2022/01/05 07:47:35;;;;;;;86.85;67.90;;;256.80;2252.80;;;;;;5030537;28;20037;-62
2022/01/05 07:50:02;;;;;;;223.13;139.57;;;256.40;2252.80;;;;;;5030046;28;20029;-57
2022/01/05 07:52:28;;;;;;;74.60;53.80;;;256.60;2252.80;;;;;;5030241;28;20084;-62
2022/01/05 07:54:53;;;;;;;52.00;33.70;;;256.80;2252.80;;;;;;5030020;28;20057;-57
2022/01/05 07:57:19;;;;;;;79.07;55.97;;;281.60;2278.40;;;;;;5030317;28;20057;-57
2022/01/05 07:59:45;;;;;;;579.22;399.88;;;281.60;2278.40;;;;;;5030645;28;20029;-57
2022/01/05 08:02:12;;;;;;;122.97;85.63;;;282.00;2278.40;;;;;;5030203;28;20021;-57
2022/01/05 08:04:38;;;;;;;82.25;53.80;;;282.10;2278.40;;;;;;5030126;28;20361;-57
2022/01/05 08:07:03;;;;;;;89.30;63.30;;;282.20;2278.40;;;;;;5029843;28;20040;-55
2022/01/05 08:09:30;;;;;;;117.18;77.70;;;282.20;2278.40;;;;;;5030092;28;20049;-63
2022/01/05 08:11:59;;;;;;;91.63;63.25;;;282.20;2278.40;;;;;;5029974;28;20426;-63
2022/01/05 08:14:24;;;;;;;313.83;222.10;;;282.20;2278.40;;;;;;5030088;28;20108;-57
2022/01/05 08:16:50;;;;;;;208.23;149.25;;;282.10;2278.40;;;;;;5030213;28;20575;-57
2022/01/05 08:19:16;;;;;;;167.00;112.82;;;282.20;2278.40;;;;;;5030272;28;20033;-57
2022/01/05 08:21:42;;;;;;;122.13;90.60;;;282.20;2278.40;;;;;;5029881;28;20017;-56
2022/01/05 08:24:08;;;;;;;178.73;136.57;;;282.20;2278.40;;;;;;5030136;28;20029;-64
2022/01/05 08:26:33;;;;;;;191.52;136.55;;;282.30;2278.40;;;;;;5029931;28;20026;-58
2022/01/05 08:28:59;;;;;;;241.88;175.52;;;282.40;2278.40;;;;;;5030045;28;20017;-56
2022/01/05 08:31:25;;;;;;;156.98;118.57;;;307.20;2304.00;;;;;;5029752;28;20034;-57
2022/01/05 08:33:51;;;;;;;184.77;146.75;;;307.40;2304.00;;;;;;5029716;28;20034;-57
2022/01/05 08:36:16;;;;;;;303.50;220.00;;;307.40;2304.00;;;;;;5029849;28;20067;-63
2022/01/05 08:38:42;;;;;;;117.18;87.60;;;307.50;2304.00;;;;;;5029899;28;20100;-62
2022/01/05 08:41:08;;;;;;;89.00;71.63;;;307.50;2304.00;;;;;;5030032;28;20022;-63
2022/01/05 08:43:34;;;;;;;98.10;79.15;;;307.70;2304.00;;;;;;5029559;28;20430;-57
2022/01/05 08:46:00;;;;;;;64.68;51.22;;;307.80;2304.00;;;;;;5029779;28;20033;-58
2022/01/05 08:48:26;;;;;;;70.82;55.60;;;307.90;2304.00;;;;;;5033596;28;20117;-57
2022/01/05 08:50:53;;;;;;;104.07;83.55;;;308.00;2304.00;;;;;;5033508;28;20028;-57
2022/01/05 08:53:19;;;;;;;80.97;61.38;;;332.90;2329.60;;;;;;5033466;28;20029;-57
2022/01/05 08:55:47;;;;;;;70.28;53.45;;;308.10;2304.00;;;;;;5033532;28;20033;-56
2022/01/05 08:58:16;;;;;;;227.85;137.70;;;332.90;2329.60;;;;;;5033353;28;20040;-57
2022/01/05 09:00:42;;;;;;;67.63;47.47;;;332.80;2329.60;;;;;;5033100;28;20430;-57
2022/01/05 09:03:09;;;;;;;94.57;62.10;;;308.00;2304.00;;;;;;5033041;28;20053;-57
2022/01/05 09:05:35;;;;;;;70.75;53.13;;;332.80;2329.60;;;;;;5033314;28;20033;-56
2022/01/05 09:08:02;;;;;;;93.30;65.60;;;332.90;2329.60;;;;;;5032882;28;20036;-57
2022/01/05 09:10:28;;;;;;;49.42;35.65;;;332.90;2329.60;;;;;;5033149;28;20483;-56
2022/01/05 09:12:56;;;;;;;49.67;39.88;;;308.10;2304.00;;;;;;5032793;28;20120;-57
2022/01/05 09:15:22;;;;;;;77.57;53.05;;;308.10;2304.00;;;;;;5033091;28;20030;-57
2022/01/05 09:17:47;;;;;;;68.05;48.63;;;332.90;2329.60;;;;;;5033090;28;20100;-56
2022/01/05 09:20:13;;;;;;;75.15;56.00;;;333.10;2329.60;;;;;;5033182;28;20163;-61
2022/01/05 09:22:39;;;;;;;111.45;79.43;;;333.10;2329.60;;;;;;5033197;28;20102;-62
2022/01/05 09:25:10;;;;;;;82.35;60.67;;;333.20;2329.60;;;;;;5033055;28;20025;-62
2022/01/05 09:27:37;;;;;;;53.60;40.65;;;358.40;2329.60;;;;;;5032973;28;20061;-62
2022/01/05 09:30:06;;;;;;;195.15;140.63;;;358.70;2329.60;;;;;;5032458;28;20025;-64
2022/01/05 09:32:31;;;;;;;124.88;92.95;;;384.30;2278.40;;;;;;5032533;28;20119;-62
2022/01/05 09:34:57;;;;;;;96.25;73.70;;;384.20;2252.80;;;;;;5032963;28;20070;-57
2022/01/05 09:37:31;;;;;;;154.10;92.38;;;384.50;2252.80;;;;;;5032678;28;20034;-57
2022/01/05 09:42:41;;;;;;;102.88;77.90;;;409.90;2150.40;;;;;;5032684;28;20031;-57
2022/01/05 09:45:20;;;;;;;108.72;86.70;;;409.70;2201.60;;;;;;5032513;28;20037;-57
2022/01/05 09:48:13;;;;;;;66.72;49.15;;;384.20;2278.40;;;;;;5032667;28;20030;-57
2022/01/05 09:50:47;;;;;;;65.43;48.45;;;384.00;2304.00;;;;;;5032438;28;20021;-63
2022/01/05 09:53:14;;;;;;;70.57;59.63;;;359.30;2329.60;;;;;;5032216;28;20045;-63
2022/01/05 09:55:40;;;;;;;75.25;58.95;;;359.30;2329.60;;;;;;5032473;28;20052;-57
2022/01/05 09:58:06;;;;;;;63.65;49.55;;;359.20;2329.60;;;;;;5031933;28;20068;-63
2022/01/05 10:00:32;;;;;;;104.63;92.00;;;359.10;2329.60;;;;;;5031924;28;20475;-57
2022/01/05 10:02:58;;;;;;;77.53;58.90;;;358.90;2329.60;;;;;;5032064;28;20496;-63
2022/01/05 10:05:24;;;;;;;96.55;75.20;;;358.40;2329.60;;;;;;5031950;28;20033;-58
2022/01/05 10:07:50;;;;;;;91.95;68.28;;;333.70;2329.60;;;;;;5031843;28;20533;-63
2022/01/05 10:10:16;;;;;;;78.35;58.28;;;333.50;2329.60;;;;;;5032314;28;20053;-56
2022/01/05 10:12:41;;;;;;;79.85;58.10;;;333.60;2329.60;;;;;;5031829;28;20034;-57
2022/01/05 10:15:07;;;;;;;78.50;56.72;;;333.40;2329.60;;;;;;5031959;28;20018;-56
2022/01/05 10:17:34;;;;;;;82.88;59.47;;;333.40;2329.60;;;;;;5031783;28;20044;-57
2022/01/05 10:20:00;;;;;;;104.40;67.22;;;333.60;2329.60;;;;;;5031753;28;20495;-57
2022/01/05 10:22:38;;;;;;;90.47;59.03;;;333.70;2329.60;;;;;;5031887;28;20029;-62
2022/01/05 10:25:23;;;;;;;75.60;56.63;;;333.70;2329.60;;;;;;5031941;28;20036;-56
2022/01/05 10:28:03;;;;;;;67.43;49.20;;;333.70;2329.60;;;;;;5031935;28;20036;-57
2022/01/05 10:30:46;;;;;;;77.05;51.60;;;358.40;2329.60;;;;;;5031599;28;20104;-56
2022/01/05 10:33:12;;;;;;;78.85;58.85;;;358.50;2329.60;;;;;;5031573;28;20045;-57
2022/01/05 10:35:38;;;;;;;84.88;50.88;;;358.50;2329.60;;;;;;5031795;28;20036;-56
2022/01/05 10:38:13;;;;;;;53.95;42.58;;;358.60;2329.60;;;;;;5031469;28;20061;-56
2022/01/05 10:40:40;;;;;;;63.35;47.40;;;358.60;2329.60;;;;;;5031512;28;20026;-57
2022/01/05 10:43:09;;;;;;;66.32;45.90;;;358.60;2329.60;;;;;;5031583;28;20431;-57
2022/01/05 10:45:37;;;;;;;66.35;46.88;;;358.80;2329.60;;;;;;5031084;28;20025;-56
2022/01/05 10:48:12;;;;;;;66.15;47.10;;;358.90;2329.60;;;;;;5031208;28;20029;-56
2022/01/05 10:50:39;;;;;;;91.75;67.85;;;358.90;2329.60;;;;;;5031377;28;20029;-57
2022/01/05 10:53:07;;;;;;;131.70;81.18;;;359.20;2329.60;;;;;;5031246;28;20094;-57
2022/01/05 10:55:39;;;;;;;123.50;74.95;;;359.30;2329.60;;;;;;5031169;28;20025;-57
2022/01/05 10:58:10;;;;;;;146.60;101.45;;;384.00;2329.60;;;;;;5031070;28;20040;-63
2022/01/05 11:00:46;;;;;;;541.75;365.48;;;384.10;2329.60;;;;;;5031142;28;20115;-57
2022/01/05 11:03:27;;;;;;;597.42;386.27;;;384.20;2329.60;;;;;;5030759;28;20107;-57
2022/01/05 11:06:08;;;;;;;203.48;141.60;;;384.40;2329.60;;;;;;5030812;28;20448;-57
2022/01/05 11:08:46;;;;;;;179.73;126.10;;;384.20;2329.60;;;;;;5030263;28;20033;-56
2022/01/05 11:11:37;;;;;;;95.13;66.47;;;384.30;2329.60;;;;;;5030618;28;20029;-57
2022/01/05 11:14:09;;;;;;;170.95;124.60;;;384.40;2329.60;;;;;;5030706;28;20072;-57
2022/01/05 11:16:39;;;;;;;235.55;153.15;;;384.40;2329.60;;;;;;5030742;28;20387;-57
2022/01/05 11:19:21;;;;;;;175.05;120.47;;;384.40;2329.60;;;;;;5030783;28;20032;-60
2022/01/05 11:22:03;;;;;;;116.90;78.25;;;384.40;2329.60;;;;;;5030854;28;20053;-62
2022/01/05 11:25:00;;;;;;;148.63;104.13;;;384.30;2329.60;;;;;;5030606;28;20049;-57
2022/01/05 11:27:28;;;;;;;316.38;224.45;;;384.20;2329.60;;;;;;5028709;28;20065;-57
2022/01/05 11:29:55;;;;;;;204.15;125.95;;;384.30;2329.60;;;;;;5028362;28;20033;-57
2022/01/05 11:32:24;;;;;;;94.10;71.97;;;384.10;2329.60;;;;;;5028130;28;20420;-57
2022/01/05 11:34:51;;;;;;;131.30;105.53;;;384.10;2329.60;;;;;;5028361;28;20500;-57
2022/01/05 11:37:17;;;;;;;126.18;108.05;;;384.10;2329.60;;;;;;5028471;28;20038;-57
2022/01/05 11:39:46;;;;;;;131.70;102.97;;;384.20;2329.60;;;;;;5028447;28;20514;-57
2022/01/05 11:42:15;;;;;;;158.13;114.95;;;384.40;2329.60;;;;;;5028248;28;20025;-57
2022/01/05 11:44:54;;;;;;;115.93;86.88;;;384.40;2329.60;;;;;;5028215;28;20419;-56
2022/01/05 11:47:31;;;;;;;114.97;88.05;;;384.40;2329.60;;;;;;5028081;28;20112;-57
2022/01/05 11:50:14;;;;;;;103.35;76.40;;;384.40;2329.60;;;;;;5028306;28;20486;-57
2022/01/05 11:53:07;;;;;;;95.28;77.88;;;384.60;2329.60;;;;;;5027916;28;20365;-57
2022/01/05 11:55:58;;;;;;;58.78;45.20;;;384.80;2329.60;;;;;;5027995;28;20037;-57
2022/01/05 11:58:26;;;;;;;61.63;42.00;;;384.90;2329.60;;;;;;5028047;28;20530;-58
2022/01/05 12:01:13;;;;;;;79.40;49.80;;;409.60;2252.80;;;;;;5027630;28;20048;-57
2022/01/05 12:03:57;;;;;;;134.30;74.13;;;409.80;2124.80;;;;;;5028559;28;20045;-57